createdAt,value
2022-11-21T00:02:11.194Z,99164.28
2022-11-21T00:05:12.595Z,99149.25
2022-11-21T00:08:17.114Z,99159.50
2022-11-21T00:11:18.595Z,99147.34
2022-11-21T00:14:20.027Z,99146.91
2022-11-21T00:17:21.442Z,99148.34
2022-11-21T00:20:22.888Z,99153.59
2022-11-21T00:23:28.187Z,99150.13
2022-11-21T00:26:29.595Z,99138.44
2022-11-21T00:29:31.003Z,99136.53
2022-11-21T00:32:32.407Z,99133.66
2022-11-21T00:35:33.816Z,99126.31
2022-11-21T00:38:35.742Z,99127.72
2022-11-21T00:41:37.139Z,99134.47
2022-11-21T00:44:38.525Z,99120.66
2022-11-21T00:47:39.956Z,99114.88
2022-11-21T00:50:41.394Z,99111.34
2022-11-21T00:53:42.840Z,99108.06
2022-11-21T00:56:44.257Z,99110.47
2022-11-21T00:59:45.651Z,99099.56
2022-11-21T01:02:47.050Z,99098.72
2022-11-21T01:05:48.506Z,99097.63
2022-11-21T01:08:49.910Z,99095.22
2022-11-21T01:11:51.376Z,99093.72
2022-11-21T01:14:52.885Z,99103.91
2022-11-21T01:17:54.267Z,99102.09
2022-11-21T01:21:00.212Z,99105.06
2022-11-21T01:24:02.682Z,99105.94
2022-11-21T01:27:04.084Z,99112.13
2022-11-21T01:30:06.058Z,99119.78
2022-11-21T01:33:07.471Z,99116.66
2022-11-21T01:36:30.749Z,99124.50
2022-11-21T01:39:32.190Z,99108.41
2022-11-21T01:43:04.542Z,99117.69
2022-11-21T01:46:13.835Z,99115.88
2022-11-21T01:49:30.584Z,99111.28
2022-11-21T01:52:32.676Z,99102.97
2022-11-21T01:55:34.748Z,99102.41
2022-11-21T01:58:38.716Z,99096.63
2022-11-21T02:01:43.337Z,99102.13
2022-11-21T02:04:45.572Z,99096.88
2022-11-21T02:07:49.243Z,99093.03
2022-11-21T02:11:14.136Z,99094.72
2022-11-21T02:14:15.839Z,99089.19
2022-11-21T02:17:20.383Z,99087.91
2022-11-21T02:20:27.974Z,99072.38
2022-11-21T02:23:44.215Z,99074.59
2022-11-21T02:26:48.133Z,99066.00
2022-11-21T02:29:49.540Z,99061.25
2022-11-21T02:32:50.938Z,99076.78
2022-11-21T02:35:59.691Z,99073.81
2022-11-21T02:39:01.511Z,99080.25
2022-11-21T02:42:14.983Z,99081.31
2022-11-21T02:45:22.675Z,99086.09
2022-11-21T02:48:24.304Z,99083.75
2022-11-21T02:51:25.713Z,99087.84
2022-11-21T02:54:27.367Z,99104.72
2022-11-21T02:57:29.068Z,99098.72
2022-11-21T03:00:30.604Z,99090.63
2022-11-21T03:03:31.996Z,99083.97
2022-11-21T03:06:33.451Z,99081.28
2022-11-21T03:09:34.916Z,99067.63
2022-11-21T03:12:40.652Z,99058.50
2022-11-21T03:15:42.043Z,99048.84
2022-11-21T03:18:43.463Z,99050.06
2022-11-21T03:21:44.901Z,99045.97
2022-11-21T03:24:46.370Z,99063.13
2022-11-21T03:27:52.123Z,99055.31
2022-11-21T03:30:53.517Z,99041.50
2022-11-21T03:33:54.916Z,99038.06
2022-11-21T03:36:56.346Z,99031.50
2022-11-21T03:39:57.752Z,99040.41
2022-11-21T03:43:05.280Z,99042.00
2022-11-21T03:46:06.696Z,99046.69
2022-11-21T03:49:08.870Z,99043.06
2022-11-21T03:52:10.274Z,99045.88
2022-11-21T03:55:11.745Z,99043.66
2022-11-21T03:58:13.175Z,99045.00
2022-11-21T04:01:15.519Z,99054.00
2022-11-21T04:04:16.913Z,99059.44
2022-11-21T04:07:18.368Z,99051.09
2022-11-21T04:10:20.840Z,99047.19
2022-11-21T04:13:22.244Z,99033.38
2022-11-21T04:16:23.636Z,99037.94
2022-11-21T04:19:25.045Z,99034.97
2022-11-21T04:22:26.516Z,99037.78
2022-11-21T04:25:27.916Z,99036.75
2022-11-21T04:28:29.589Z,99043.56
2022-11-21T04:31:31.005Z,99042.69
2022-11-21T04:34:32.446Z,99041.09
2022-11-21T04:37:33.844Z,99037.94
2022-11-21T04:40:36.050Z,99026.09
2022-11-21T04:43:37.482Z,99033.28
2022-11-21T04:46:38.892Z,99035.41
2022-11-21T04:49:40.371Z,99036.03
2022-11-21T04:52:41.997Z,99028.03
2022-11-21T04:55:43.411Z,99033.13
2022-11-21T04:58:45.037Z,99025.63
2022-11-21T05:01:46.509Z,99021.94
2022-11-21T05:04:48.240Z,99029.19
2022-11-21T05:07:49.639Z,99025.22
2022-11-21T05:11:09.765Z,99029.88
2022-11-21T05:14:11.207Z,99031.84
2022-11-21T05:17:12.601Z,99035.06
2022-11-21T05:20:15.062Z,99040.59
2022-11-21T05:23:16.535Z,99042.50
2022-11-21T05:26:17.930Z,99041.94
2022-11-21T05:29:22.654Z,99040.28
2022-11-21T05:32:26.635Z,99030.31
2022-11-21T05:35:28.067Z,99031.22
2022-11-21T05:38:29.455Z,99036.28
2022-11-21T05:41:30.875Z,99035.25
2022-11-21T05:44:32.291Z,99038.34
2022-11-21T05:47:33.761Z,99036.88
2022-11-21T05:50:38.162Z,99035.94
2022-11-21T05:53:39.572Z,99038.91
2022-11-21T05:56:41.075Z,99045.38
2022-11-21T05:59:42.468Z,99038.06
2022-11-21T06:03:16.091Z,99034.00
2022-11-21T06:06:22.173Z,99029.56
2022-11-21T06:09:26.185Z,99034.00
2022-11-21T06:12:27.578Z,99031.41
2022-11-21T06:15:29.388Z,99026.91
2022-11-21T06:18:33.640Z,99029.28
2022-11-21T06:21:37.197Z,99035.75
2022-11-21T06:24:38.600Z,99030.09
2022-11-21T06:27:40.047Z,99022.72
2022-11-21T06:30:41.429Z,99024.66
2022-11-21T06:33:43.904Z,99021.91
2022-11-21T06:36:45.821Z,99023.25
2022-11-21T06:39:48.654Z,99028.25
2022-11-21T06:42:50.131Z,99024.38
2022-11-21T06:45:51.564Z,99026.00
2022-11-21T06:48:53.767Z,99022.44
2022-11-21T06:51:55.215Z,99025.19
2022-11-21T06:54:56.628Z,99017.50
2022-11-21T06:57:59.645Z,99023.72
2022-11-21T07:01:05.834Z,99027.31
2022-11-21T07:04:07.256Z,99023.72
2022-11-21T07:07:08.718Z,99026.63
2022-11-21T07:10:10.417Z,99018.88
2022-11-21T07:13:23.659Z,99020.66
2022-11-21T07:16:26.215Z,99018.38
2022-11-21T07:19:28.133Z,99013.84
2022-11-21T07:22:29.759Z,99010.38
2022-11-21T07:25:36.302Z,99010.16
2022-11-21T07:28:38.245Z,99003.22
2022-11-21T07:31:39.675Z,99001.97
2022-11-21T07:34:41.169Z,99009.19
2022-11-21T07:37:42.620Z,99002.19
2022-11-21T07:40:44.158Z,99003.22
2022-11-21T07:43:45.605Z,99003.00
2022-11-21T07:46:46.991Z,99001.22
2022-11-21T07:49:48.414Z,99003.59
2022-11-21T07:52:49.820Z,98996.09
2022-11-21T07:55:51.238Z,98996.50
2022-11-21T07:58:53.085Z,98990.38
2022-11-21T08:01:54.550Z,98983.75
2022-11-21T08:04:56.036Z,98982.59
2022-11-21T08:07:57.431Z,98976.94
2022-11-21T08:10:58.834Z,98970.63
2022-11-21T08:14:00.240Z,98978.06
2022-11-21T08:17:01.851Z,98982.91
2022-11-21T08:20:04.277Z,98971.56
2022-11-21T08:23:06.481Z,98964.81
2022-11-21T08:26:10.053Z,98962.22
2022-11-21T08:29:12.541Z,98962.09
2022-11-21T08:32:14.646Z,98952.59
2022-11-21T08:35:16.054Z,98952.25
2022-11-21T08:38:17.586Z,98951.22
2022-11-21T08:41:37.659Z,98952.53
2022-11-21T08:44:39.565Z,98948.00
2022-11-21T08:47:41.368Z,98952.28
2022-11-21T08:50:42.835Z,98953.53
2022-11-21T08:53:44.210Z,98952.50
2022-11-21T08:56:45.799Z,98960.16
2022-11-21T08:59:47.343Z,98948.91
2022-11-21T09:02:48.710Z,98940.16
2022-11-21T09:05:50.106Z,98933.56
2022-11-21T09:08:51.627Z,98926.84
2022-11-21T09:11:53.234Z,98922.56
2022-11-21T09:15:13.485Z,98920.66
2022-11-21T09:18:14.878Z,98916.69
2022-11-21T09:21:17.390Z,98919.25
2022-11-21T09:24:19.410Z,98907.50
2022-11-21T09:27:20.824Z,98902.84
2022-11-21T09:30:22.267Z,98915.56
2022-11-21T09:33:23.659Z,98903.34
2022-11-21T09:36:25.096Z,98895.47
2022-11-21T09:39:26.759Z,98884.16
2022-11-21T09:42:57.250Z,98874.72
2022-11-21T09:46:06.058Z,98861.94
2022-11-21T09:49:12.296Z,98853.03
2022-11-21T09:52:17.531Z,98857.53
2022-11-21T09:55:40.993Z,98856.84
2022-11-21T09:58:47.475Z,98856.50
2022-11-21T10:01:48.945Z,98842.66
2022-11-21T10:04:52.003Z,98838.41
2022-11-21T10:07:58.614Z,98823.56
2022-11-21T10:11:20.469Z,98815.66
2022-11-21T10:14:27.942Z,98824.25
2022-11-21T10:17:48.338Z,98806.63
2022-11-21T10:20:56.732Z,98804.28
2022-11-21T10:24:20.059Z,98796.56
2022-11-21T10:27:31.638Z,98781.28
2022-11-21T10:30:33.527Z,98780.91
2022-11-21T10:33:40.192Z,98760.91
2022-11-21T10:36:47.668Z,98754.00
2022-11-21T10:39:51.107Z,98741.66
2022-11-21T10:43:20.728Z,98738.28
2022-11-21T10:46:22.156Z,98727.81
2022-11-21T10:49:29.844Z,98713.25
2022-11-21T10:52:35.309Z,98711.78
2022-11-21T10:55:55.498Z,98707.31
2022-11-21T10:58:59.192Z,98707.63
2022-11-21T11:02:12.852Z,98708.50
2022-11-21T11:05:18.077Z,98689.78
2022-11-21T11:08:19.481Z,98684.31
2022-11-21T11:11:22.499Z,98678.53
2022-11-21T11:14:33.343Z,98670.75
2022-11-21T11:17:34.767Z,98671.41
2022-11-21T11:20:45.003Z,98657.03
2022-11-21T11:23:48.441Z,98654.06
2022-11-21T11:26:51.625Z,98644.38
2022-11-21T11:29:53.245Z,98644.97
2022-11-21T11:32:54.905Z,98646.78
2022-11-21T11:36:36.837Z,98637.94
2022-11-21T11:39:46.246Z,98630.94
2022-11-21T11:43:17.301Z,98614.53
2022-11-21T11:46:44.599Z,98605.25
2022-11-21T11:50:11.354Z,98596.78
2022-11-21T11:53:22.958Z,98578.97
2022-11-21T11:56:37.930Z,98573.06
2022-11-21T11:59:45.349Z,98568.81
2022-11-21T12:03:00.123Z,98556.44
2022-11-21T12:10:33.666Z,98558.81
2022-11-21T12:13:37.093Z,98546.81
2022-11-21T12:16:41.210Z,98535.13
2022-11-21T12:19:42.708Z,98530.38
2022-11-21T12:22:47.149Z,98525.69
2022-11-21T12:25:57.857Z,98513.44
2022-11-21T12:29:24.145Z,98501.41
2022-11-21T12:32:40.837Z,98494.66
2022-11-21T12:36:16.742Z,98480.88
2022-11-21T12:39:44.962Z,98479.13
2022-11-21T12:43:05.227Z,98471.75
2022-11-21T12:46:20.581Z,98468.59
2022-11-21T12:50:11.255Z,98462.16
2022-11-21T12:54:10.857Z,98463.63
2022-11-21T12:57:21.013Z,98456.06
2022-11-21T13:00:29.307Z,98452.81
2022-11-21T13:03:39.829Z,98442.09
2022-11-21T13:06:44.357Z,98446.03
2022-11-21T13:09:49.074Z,98439.31
2022-11-21T13:13:02.715Z,98438.75
2022-11-21T13:16:12.676Z,98423.50
2022-11-21T13:19:17.190Z,98422.06
2022-11-21T13:22:36.931Z,98410.06
2022-11-21T13:25:40.390Z,98403.50
2022-11-21T13:28:46.184Z,98397.06
2022-11-21T13:31:48.111Z,98391.75
2022-11-21T13:34:49.637Z,98377.78
2022-11-21T13:38:08.523Z,98376.16
2022-11-21T13:41:33.120Z,98365.03
2022-11-21T13:44:41.391Z,98363.53
2022-11-21T13:48:03.517Z,98355.22
2022-11-21T13:51:07.656Z,98339.34
2022-11-21T13:54:42.211Z,98334.38
2022-11-21T13:58:02.516Z,98325.69
2022-11-21T14:01:45.603Z,98323.63
2022-11-21T14:05:13.170Z,98299.06
2022-11-21T14:08:17.990Z,98288.25
2022-11-21T14:11:40.105Z,98280.88
2022-11-21T14:14:51.701Z,98269.56
2022-11-21T14:17:58.318Z,98260.97
2022-11-21T14:21:01.574Z,98252.28
2022-11-21T14:24:13.346Z,98237.09
2022-11-21T14:27:25.597Z,98227.56
2022-11-21T14:30:30.115Z,98209.94
2022-11-21T14:33:36.425Z,98186.75
2022-11-21T14:36:38.591Z,98169.59
2022-11-21T14:39:44.517Z,98166.22
2022-11-21T14:42:47.114Z,98145.66
2022-11-21T14:45:49.522Z,98139.19
2022-11-21T14:48:52.363Z,98132.75
2022-11-21T14:51:58.948Z,98147.91
2022-11-21T14:58:28.280Z,98132.91
2022-11-21T15:01:31.791Z,98126.44
2022-11-21T15:04:36.129Z,98119.84
2022-11-21T15:07:43.644Z,98115.59
2022-11-21T15:10:45.663Z,98115.03
2022-11-21T15:17:18.760Z,98099.91
2022-11-21T15:20:21.053Z,98098.31
2022-11-21T15:23:26.656Z,98098.50
2022-11-21T15:26:33.800Z,98086.72
2022-11-21T15:29:35.200Z,98089.41
2022-11-21T15:32:59.679Z,98079.78
2022-11-21T15:36:14.997Z,98058.72
2022-11-21T15:39:22.359Z,98039.88
2022-11-21T15:42:33.500Z,98044.47
2022-11-21T15:45:35.023Z,98048.00
2022-11-21T15:48:36.696Z,98027.81
2022-11-21T15:55:13.581Z,98002.91
2022-11-21T15:58:17.584Z,97984.47
2022-11-21T16:01:21.863Z,97978.53
2022-11-21T16:04:25.996Z,97962.25
2022-11-21T16:07:27.761Z,97960.81
2022-11-21T16:10:29.298Z,97946.69
2022-11-21T16:13:30.788Z,97968.53
2022-11-21T16:16:41.489Z,97983.38
2022-11-21T16:19:45.507Z,97978.50
2022-11-21T16:22:47.969Z,97972.72
2022-11-21T16:25:54.255Z,97958.72
2022-11-21T16:28:56.731Z,97948.91
2022-11-21T16:31:58.187Z,97938.56
2022-11-21T16:34:59.889Z,97932.31
2022-11-21T16:38:01.272Z,97931.84
2022-11-21T16:41:06.843Z,97919.19
2022-11-21T16:44:15.907Z,97918.88
2022-11-21T16:47:17.291Z,97900.00
2022-11-21T16:50:18.795Z,97887.78
2022-11-21T16:53:20.241Z,97884.19
2022-11-21T16:56:21.698Z,97874.19
2022-11-21T16:59:23.176Z,97887.78
2022-11-21T17:02:24.636Z,97889.81
2022-11-21T17:05:26.285Z,97881.75
2022-11-21T17:08:28.556Z,97884.97
2022-11-21T17:11:31.330Z,97899.91
2022-11-21T17:14:32.789Z,97907.38
2022-11-21T17:17:34.431Z,97908.72
2022-11-21T17:20:35.859Z,97905.31
2022-11-21T17:23:40.451Z,97907.44
2022-11-21T17:26:41.853Z,97906.72
2022-11-21T17:29:43.361Z,97896.91
2022-11-21T17:32:44.909Z,97905.19
2022-11-21T17:35:46.332Z,97913.09
2022-11-21T17:38:48.387Z,97914.44
2022-11-21T17:41:49.925Z,97917.78
2022-11-21T17:44:51.408Z,97921.38
2022-11-21T17:47:52.916Z,97918.44
2022-11-21T17:51:16.321Z,97922.75
2022-11-21T17:54:18.648Z,97910.69
2022-11-21T17:57:20.070Z,97901.94
2022-11-21T18:00:21.583Z,97903.09
2022-11-21T18:03:23.664Z,97900.50
2022-11-21T18:06:28.142Z,97898.25
2022-11-21T18:09:29.813Z,97894.16
2022-11-21T18:12:31.534Z,97882.75
2022-11-21T18:15:33.777Z,97884.78
2022-11-21T18:18:36.942Z,97878.28
2022-11-21T18:21:38.494Z,97884.53
2022-11-21T18:24:39.902Z,97879.53
2022-11-21T18:27:41.404Z,97878.25
2022-11-21T18:30:42.809Z,97888.84
2022-11-21T18:33:44.797Z,97889.69
2022-11-21T18:36:47.618Z,97887.34
2022-11-21T18:39:49.108Z,97898.31
2022-11-21T18:42:51.926Z,97880.00
2022-11-21T18:45:53.369Z,97878.50
2022-11-21T18:49:02.772Z,97864.59
2022-11-21T18:52:06.078Z,97861.25
2022-11-21T18:55:07.903Z,97871.22
2022-11-21T18:58:09.655Z,97863.81
2022-11-21T19:01:22.531Z,97871.81
2022-11-21T19:04:25.542Z,97872.31
2022-11-21T19:07:27.125Z,97871.69
2022-11-21T19:10:42.749Z,97872.66
2022-11-21T19:13:45.040Z,97882.59
2022-11-21T19:16:46.466Z,97886.91
2022-11-21T19:19:48.478Z,97885.16
2022-11-21T19:22:50.144Z,97888.16
2022-11-21T19:25:51.571Z,97891.19
2022-11-21T19:28:53.131Z,97903.56
2022-11-21T19:31:55.722Z,97903.34
2022-11-21T19:34:57.180Z,97910.72
2022-11-21T19:37:58.788Z,97904.59
2022-11-21T19:41:15.794Z,97908.19
2022-11-21T19:44:17.196Z,97906.66
2022-11-21T19:47:18.619Z,97897.31
2022-11-21T19:50:20.335Z,97895.41
2022-11-21T19:53:21.773Z,97883.38
2022-11-21T19:56:25.086Z,97884.44
2022-11-21T19:59:27.502Z,97870.34
2022-11-21T20:02:29.641Z,97864.22
2022-11-21T20:05:31.072Z,97865.84
2022-11-21T20:08:32.902Z,97869.25
2022-11-21T20:11:35.266Z,97854.25
2022-11-21T20:14:36.635Z,97853.69
2022-11-21T20:17:38.078Z,97846.25
2022-11-21T20:20:39.583Z,97835.94
2022-11-21T20:23:41.499Z,97811.63
2022-11-21T20:26:44.101Z,97813.72
2022-11-21T20:29:45.512Z,97810.81
2022-11-21T20:32:47.017Z,97811.00
2022-11-21T20:35:48.418Z,97809.38
2022-11-21T20:38:55.064Z,97808.31
2022-11-21T20:41:56.542Z,97809.41
2022-11-21T20:45:54.267Z,97811.75
2022-11-21T20:48:20.582Z,97804.81
2022-11-21T20:54:44.332Z,97810.84
2022-11-21T20:57:45.778Z,97808.88
2022-11-21T21:00:47.163Z,97806.25
2022-11-21T21:03:48.582Z,97806.09
2022-11-21T21:06:49.989Z,97806.78
2022-11-21T21:09:51.647Z,97803.84
2022-11-21T21:12:53.395Z,97811.66
2022-11-21T21:15:54.907Z,97795.13
2022-11-21T21:18:56.931Z,97809.88
2022-11-21T21:21:58.401Z,97808.59
2022-11-21T21:24:59.846Z,97810.03
2022-11-21T21:28:01.433Z,97805.19
2022-11-21T21:31:08.073Z,97802.22
2022-11-21T21:34:10.006Z,97803.00
2022-11-21T21:37:11.511Z,97803.63
2022-11-21T21:40:12.951Z,97806.69
2022-11-21T21:43:14.338Z,97798.97
2022-11-21T21:46:17.666Z,97800.84
2022-11-21T21:49:19.119Z,97799.53
2022-11-21T21:52:20.570Z,97795.84
2022-11-21T21:55:21.991Z,97797.38
2022-11-21T21:58:23.395Z,97790.63
2022-11-21T22:01:29.639Z,97787.66
2022-11-21T22:04:33.060Z,97798.88
2022-11-21T22:07:34.617Z,97812.88
2022-11-21T22:10:36.086Z,97817.38
2022-11-21T22:13:38.770Z,97809.47
2022-11-21T22:16:41.439Z,97811.03
2022-11-21T22:19:43.236Z,97799.16
2022-11-21T22:22:45.882Z,97798.63
2022-11-21T22:25:47.407Z,97796.28
2022-11-21T22:28:48.878Z,97798.22
2022-11-21T22:31:50.892Z,97799.13
2022-11-21T22:34:52.538Z,97794.19
2022-11-21T22:37:53.945Z,97806.94
2022-11-21T22:41:13.645Z,97798.31
2022-11-21T22:44:15.117Z,97795.06
2022-11-21T22:47:16.583Z,97808.47
2022-11-21T22:50:17.964Z,97817.25
2022-11-21T22:53:19.469Z,97824.53
2022-11-21T22:56:23.381Z,97829.50
2022-11-21T22:59:24.825Z,97837.31
2022-11-21T23:02:26.273Z,97848.91
2022-11-21T23:05:27.688Z,97849.44
2022-11-21T23:08:30.805Z,97841.66
2022-11-21T23:11:39.245Z,97842.19
2022-11-21T23:14:41.955Z,97856.38
2022-11-21T23:17:46.056Z,97843.72
2022-11-21T23:20:49.969Z,97830.19
2022-11-21T23:23:51.542Z,97819.34
2022-11-21T23:26:52.961Z,97817.69
2022-11-21T23:29:54.351Z,97810.38
2022-11-21T23:32:55.762Z,97801.31
2022-11-21T23:35:57.200Z,97801.31
2022-11-21T23:38:58.616Z,97799.22
2022-11-21T23:42:00.029Z,97801.03
2022-11-21T23:45:01.430Z,97794.13
2022-11-21T23:48:02.887Z,97803.84
2022-11-21T23:51:04.309Z,97800.25
2022-11-21T23:54:05.735Z,97817.19
2022-11-21T23:57:07.201Z,97817.44
